Hauptseite
METAR-TAF:

METAR-TAF

Flughäfen :

Fliegerhorst Hinterstoisser

Zeltweg, Österreich

Breite: 47-12N, Länge: 014-45E, Höhe: 677 m

Beobachtung

Neuester Wetterbericht von vor 24 Minuten, um 16:50 UTC
Wind 1 kt aus unterschiedlichen Richtungen
Temperatur -1°C
Luftfeuchtigkeit 74%
Luftdruck 1023 hPa
Himmel klar

METAR: LOXZ 301650Z VRB01KT 10KM // SKC M01/M05 Q1023

Zeit: 18:14 (17:14 UTC)

Prognose

Neuester Wetterbericht von vor 5 Stunden und 59 Minuten, um 11:15 UTC
Gültige Prognose vom 30 um 12 UTC bis 30 um 21 UTC
Wind 3 kt aus unterschiedlichen Richtungen
Sichtweite 10 km oder mehr
Leicht bewölkt in der Höhe von 4000 ft

TAF: LOXZ 301115Z 3012/3021 VRB03KT 9999 FEW040

Wetterbeobachtungen und Prognosen von mehr als 4000 Flughäfen (METAR und TAF Bericht).

Die verfügbaren Stationen werden durch gelbe und rote Markierungen auf der Karte dargestellt.

Führen Sie die Maus auf sie, um den Namen der Station zu sehen.

Darauf klicken, um die Beobachtung von Wetterbeobachtungen und Prognosen zu sehen.

Um die Karte zu ändern : klicken Sie auf den grünen Tasten mit einem schwarzen Kreuz Zum Vergrößern, auf den grünen Button mit einem Gedankenstrich zu verkleinern, oder auf die grünen Pfeile für benachbarte Karten.


METAR-TAF: